createdAt,value
2018-06-06T00:00:11.629Z,1007.61
2018-06-06T00:01:11.618Z,1007.62
2018-06-06T00:02:11.608Z,1007.60
2018-06-06T00:03:11.591Z,1007.60
2018-06-06T00:04:11.582Z,1007.59
2018-06-06T00:05:11.573Z,1007.59
2018-06-06T00:06:11.553Z,1007.58
2018-06-06T00:07:11.537Z,1007.57
2018-06-06T00:08:11.524Z,1007.58
2018-06-06T00:09:11.515Z,1007.56
2018-06-06T00:10:11.502Z,1007.57
2018-06-06T00:11:11.493Z,1007.59
2018-06-06T00:12:11.483Z,1007.61
2018-06-06T00:13:11.460Z,1007.62
2018-06-06T00:14:11.450Z,1007.59
2018-06-06T00:15:11.441Z,1007.57
2018-06-06T00:16:11.429Z,1007.57
2018-06-06T00:17:11.412Z,1007.58
2018-06-06T00:18:11.401Z,1007.53
2018-06-06T00:19:11.383Z,1007.53
2018-06-06T00:20:11.367Z,1007.56
2018-06-06T00:21:11.357Z,1007.56
2018-06-06T00:22:11.349Z,1007.55
2018-06-06T00:23:11.334Z,1007.57
2018-06-06T00:24:11.322Z,1007.63
2018-06-06T00:25:11.309Z,1007.64
2018-06-06T00:26:11.296Z,1007.62
2018-06-06T00:27:11.289Z,1007.61
2018-06-06T00:28:11.268Z,1007.62
2018-06-06T00:29:11.262Z,1007.58
2018-06-06T00:30:11.237Z,1007.58
2018-06-06T00:31:11.230Z,1007.61
2018-06-06T00:32:11.221Z,1007.60
2018-06-06T00:33:11.212Z,1007.61
2018-06-06T00:34:11.186Z,1007.63
2018-06-06T00:35:11.178Z,1007.59
2018-06-06T00:36:11.166Z,1007.64
2018-06-06T00:37:11.162Z,1007.64
2018-06-06T00:38:11.139Z,1007.62
2018-06-06T00:39:11.129Z,1007.57
2018-06-06T00:40:11.120Z,1007.60
2018-06-06T00:41:11.111Z,1007.57
2018-06-06T00:42:11.091Z,1007.60
2018-06-06T00:43:11.081Z,1007.62
2018-06-06T00:44:11.063Z,1007.57
2018-06-06T00:45:11.047Z,1007.57
2018-06-06T00:46:11.034Z,1007.54
2018-06-06T00:47:11.018Z,1007.56
2018-06-06T00:48:11.007Z,1007.56
2018-06-06T00:49:11.012Z,1007.51
2018-06-06T00:50:10.984Z,1007.53
2018-06-06T00:51:10.973Z,1007.54
2018-06-06T00:52:10.959Z,1007.54
2018-06-06T00:53:10.950Z,1007.52
2018-06-06T00:54:10.937Z,1007.55
2018-06-06T00:55:10.918Z,1007.52
2018-06-06T00:56:10.911Z,1007.53
2018-06-06T00:57:10.901Z,1007.50
2018-06-06T00:58:10.889Z,1007.52
2018-06-06T00:59:10.869Z,1007.50
2018-06-06T01:00:10.857Z,1007.48
2018-06-06T01:01:10.844Z,1007.48
2018-06-06T01:02:10.831Z,1007.48
2018-06-06T01:03:10.819Z,1007.48
2018-06-06T01:04:10.803Z,1007.49
2018-06-06T01:05:10.791Z,1007.48
2018-06-06T01:06:10.782Z,1007.51
2018-06-06T01:07:10.763Z,1007.50
2018-06-06T01:08:10.748Z,1007.47
2018-06-06T01:09:10.736Z,1007.48
2018-06-06T01:10:10.723Z,1007.47
2018-06-06T01:11:10.710Z,1007.48
2018-06-06T01:12:10.704Z,1007.49
2018-06-06T01:13:10.686Z,1007.48
2018-06-06T01:14:10.683Z,1007.47
2018-06-06T01:15:10.657Z,1007.46
2018-06-06T01:16:10.647Z,1007.52
2018-06-06T01:17:10.641Z,1007.49
2018-06-06T01:18:10.623Z,1007.48
2018-06-06T01:19:10.608Z,1007.47
2018-06-06T01:20:10.586Z,1007.43
2018-06-06T01:21:10.577Z,1007.45
2018-06-06T01:22:10.571Z,1007.42
2018-06-06T01:23:10.552Z,1007.40
2018-06-06T01:24:10.541Z,1007.39
2018-06-06T01:25:10.532Z,1007.38
2018-06-06T01:26:10.523Z,1007.39
2018-06-06T01:27:10.497Z,1007.37
2018-06-06T01:28:10.481Z,1007.34
2018-06-06T01:29:10.486Z,1007.34
2018-06-06T01:30:10.461Z,1007.35
2018-06-06T01:31:10.449Z,1007.35
2018-06-06T01:32:10.436Z,1007.40
2018-06-06T01:33:10.430Z,1007.41
2018-06-06T01:34:10.410Z,1007.39
2018-06-06T01:35:10.395Z,1007.38
2018-06-06T01:36:10.381Z,1007.39
2018-06-06T01:37:10.364Z,1007.44
2018-06-06T01:38:10.363Z,1007.41
2018-06-06T01:39:10.345Z,1007.43
2018-06-06T01:40:10.334Z,1007.40
2018-06-06T01:41:10.321Z,1007.39
2018-06-06T01:42:10.306Z,1007.38
2018-06-06T01:43:10.287Z,1007.41
2018-06-06T01:44:10.278Z,1007.39
2018-06-06T01:45:10.274Z,1007.42
2018-06-06T01:46:10.251Z,1007.41
2018-06-06T01:47:10.265Z,1007.41
2018-06-06T01:48:10.245Z,1007.39
2018-06-06T01:49:10.219Z,1007.41
2018-06-06T01:50:10.192Z,1007.39
2018-06-06T01:51:10.240Z,1007.44
2018-06-06T01:52:10.169Z,1007.41
2018-06-06T01:53:10.159Z,1007.39
2018-06-06T01:54:10.144Z,1007.38
2018-06-06T01:55:10.131Z,1007.35
2018-06-06T01:56:10.112Z,1007.38
2018-06-06T01:57:10.111Z,1007.34
2018-06-06T01:58:10.091Z,1007.38
2018-06-06T01:59:10.076Z,1007.34
2018-06-06T02:00:10.056Z,1007.34
2018-06-06T02:01:10.048Z,1007.35
2018-06-06T02:02:10.038Z,1007.36
2018-06-06T02:03:10.025Z,1007.37
2018-06-06T02:04:10.012Z,1007.35
2018-06-06T02:05:10.000Z,1007.34
2018-06-06T02:06:09.984Z,1007.36
2018-06-06T02:07:09.972Z,1007.32
2018-06-06T02:08:09.955Z,1007.33
2018-06-06T02:09:09.946Z,1007.36
2018-06-06T02:10:09.923Z,1007.36
2018-06-06T02:11:09.916Z,1007.33
2018-06-06T02:12:09.907Z,1007.31
2018-06-06T02:13:09.891Z,1007.31
2018-06-06T02:14:09.882Z,1007.29
2018-06-06T02:15:09.872Z,1007.28
2018-06-06T02:16:09.850Z,1007.26
2018-06-06T02:17:09.847Z,1007.25
2018-06-06T02:18:09.827Z,1007.24
2018-06-06T02:19:09.811Z,1007.24
2018-06-06T02:20:09.797Z,1007.23
2018-06-06T02:21:09.782Z,1007.25
2018-06-06T02:22:09.772Z,1007.25
2018-06-06T02:23:09.764Z,1007.24
2018-06-06T02:24:09.749Z,1007.21
2018-06-06T02:25:09.729Z,1007.25
2018-06-06T02:26:09.718Z,1007.23
2018-06-06T02:27:09.777Z,1007.19
2018-06-06T02:28:09.682Z,1007.21
2018-06-06T02:29:09.672Z,1007.21
2018-06-06T02:30:09.667Z,1007.22
2018-06-06T02:31:09.703Z,1007.22
2018-06-06T02:32:09.640Z,1007.25
2018-06-06T02:33:09.630Z,1007.26
2018-06-06T02:34:09.607Z,1007.27
2018-06-06T02:35:09.752Z,1007.26
2018-06-06T02:36:09.581Z,1007.22
2018-06-06T02:37:09.565Z,1007.26
2018-06-06T02:38:09.554Z,1007.27
2018-06-06T02:39:09.544Z,1007.22
2018-06-06T02:40:09.527Z,1007.24
2018-06-06T02:41:09.512Z,1007.23
2018-06-06T02:42:09.503Z,1007.25
2018-06-06T02:43:09.478Z,1007.21
2018-06-06T02:44:09.472Z,1007.20
2018-06-06T02:45:09.458Z,1007.22
2018-06-06T02:46:09.447Z,1007.24
2018-06-06T02:47:09.430Z,1007.23
2018-06-06T02:48:09.419Z,1007.24
2018-06-06T02:49:09.404Z,1007.23
2018-06-06T02:50:09.390Z,1007.22
2018-06-06T02:51:09.384Z,1007.27
2018-06-06T02:52:09.372Z,1007.23
2018-06-06T02:53:09.350Z,1007.26
2018-06-06T02:54:09.334Z,1007.25
2018-06-06T02:55:09.321Z,1007.28
2018-06-06T02:56:09.311Z,1007.25
2018-06-06T02:57:09.306Z,1007.26
2018-06-06T02:58:09.276Z,1007.27
2018-06-06T02:59:09.271Z,1007.30
2018-06-06T03:00:09.258Z,1007.32
2018-06-06T03:01:09.242Z,1007.30
2018-06-06T03:02:09.230Z,1007.29
2018-06-06T03:03:09.226Z,1007.31
2018-06-06T03:04:09.201Z,1007.31
2018-06-06T03:05:09.197Z,1007.34
2018-06-06T03:06:09.180Z,1007.32
2018-06-06T03:07:09.157Z,1007.33
2018-06-06T03:08:09.148Z,1007.34
2018-06-06T03:09:09.130Z,1007.31
2018-06-06T03:10:09.121Z,1007.34
2018-06-06T03:11:09.105Z,1007.32
2018-06-06T03:12:09.093Z,1007.36
2018-06-06T03:13:09.079Z,1007.35
2018-06-06T03:14:09.069Z,1007.32
2018-06-06T03:15:09.051Z,1007.32
2018-06-06T03:16:09.041Z,1007.31
2018-06-06T03:17:09.031Z,1007.32
2018-06-06T03:18:09.019Z,1007.35
2018-06-06T03:19:09.004Z,1007.33
2018-06-06T03:20:08.977Z,1007.36
2018-06-06T03:21:08.967Z,1007.39
2018-06-06T03:22:08.952Z,1007.36
2018-06-06T03:23:08.941Z,1007.36
2018-06-06T03:24:08.932Z,1007.39
2018-06-06T03:25:08.907Z,1007.41
2018-06-06T03:26:08.898Z,1007.42
2018-06-06T03:27:08.891Z,1007.41
2018-06-06T03:28:08.872Z,1007.42
2018-06-06T03:29:08.915Z,1007.38
2018-06-06T03:30:08.855Z,1007.36
2018-06-06T03:31:08.827Z,1007.38
2018-06-06T03:32:08.818Z,1007.37
2018-06-06T03:33:08.798Z,1007.38
2018-06-06T03:34:08.792Z,1007.40
2018-06-06T03:35:08.785Z,1007.41
2018-06-06T03:36:08.761Z,1007.40
2018-06-06T03:37:08.753Z,1007.39
2018-06-06T03:38:08.737Z,1007.43
2018-06-06T03:39:08.720Z,1007.40
2018-06-06T03:40:08.711Z,1007.41
2018-06-06T03:41:08.693Z,1007.43
2018-06-06T03:42:08.683Z,1007.48
2018-06-06T03:43:08.663Z,1007.44
2018-06-06T03:44:08.672Z,1007.45
2018-06-06T03:45:08.641Z,1007.45
2018-06-06T03:46:08.635Z,1007.47
2018-06-06T03:47:08.612Z,1007.44
2018-06-06T03:48:08.648Z,1007.49
2018-06-06T03:49:08.591Z,1007.47
2018-06-06T03:50:08.580Z,1007.48
2018-06-06T03:51:08.567Z,1007.50
2018-06-06T03:52:08.631Z,1007.49
2018-06-06T03:53:08.531Z,1007.51
2018-06-06T03:54:08.523Z,1007.53
2018-06-06T03:55:08.496Z,1007.50
2018-06-06T03:56:08.557Z,1007.52
2018-06-06T03:57:08.477Z,1007.48
2018-06-06T03:58:08.470Z,1007.51
2018-06-06T03:59:08.451Z,1007.51
2018-06-06T04:00:08.535Z,1007.50
2018-06-06T04:01:08.420Z,1007.51
2018-06-06T04:02:08.436Z,1007.49
2018-06-06T04:03:08.397Z,1007.47
2018-06-06T04:04:08.422Z,1007.48
2018-06-06T04:05:08.367Z,1007.49
2018-06-06T04:06:08.417Z,1007.46
2018-06-06T04:07:08.342Z,1007.47
2018-06-06T04:08:08.335Z,1007.47
2018-06-06T04:09:08.309Z,1007.38
2018-06-06T04:10:08.348Z,1007.43
2018-06-06T04:11:08.291Z,1007.41
2018-06-06T04:12:08.269Z,1007.40
2018-06-06T04:13:08.258Z,1007.43
2018-06-06T04:14:08.249Z,1007.44
2018-06-06T04:15:08.229Z,1007.41
2018-06-06T04:16:08.212Z,1007.38
2018-06-06T04:17:08.213Z,1007.44
2018-06-06T04:18:08.191Z,1007.39
2018-06-06T04:19:08.172Z,1007.41
2018-06-06T04:20:08.162Z,1007.42
2018-06-06T04:21:08.154Z,1007.44
2018-06-06T04:22:08.139Z,1007.43
2018-06-06T04:23:08.126Z,1007.47
2018-06-06T04:24:08.107Z,1007.49
2018-06-06T04:25:08.095Z,1007.50
2018-06-06T04:26:08.083Z,1007.56
2018-06-06T04:27:08.070Z,1007.55
2018-06-06T04:28:08.055Z,1007.57
2018-06-06T04:29:08.038Z,1007.59
2018-06-06T04:30:08.031Z,1007.56
2018-06-06T04:31:08.009Z,1007.54
2018-06-06T04:32:08.002Z,1007.55
2018-06-06T04:33:07.989Z,1007.57
2018-06-06T04:34:07.974Z,1007.52
2018-06-06T04:35:07.955Z,1007.53
2018-06-06T04:36:07.952Z,1007.51
2018-06-06T04:37:07.936Z,1007.46
2018-06-06T04:38:07.917Z,1007.46
2018-06-06T04:39:07.910Z,1007.47
2018-06-06T04:40:07.900Z,1007.48
2018-06-06T04:41:07.882Z,1007.51
2018-06-06T04:42:07.873Z,1007.45
2018-06-06T04:43:07.850Z,1007.47
2018-06-06T04:44:07.839Z,1007.49
2018-06-06T04:45:07.828Z,1007.50
2018-06-06T04:46:07.821Z,1007.49
2018-06-06T04:47:07.795Z,1007.47
2018-06-06T04:48:07.783Z,1007.49
2018-06-06T04:49:07.766Z,1007.46
2018-06-06T04:50:07.758Z,1007.47
2018-06-06T04:51:07.748Z,1007.48
2018-06-06T04:52:07.741Z,1007.50
2018-06-06T04:53:07.722Z,1007.50
2018-06-06T04:54:07.709Z,1007.52
2018-06-06T04:55:07.692Z,1007.54
2018-06-06T04:56:07.677Z,1007.56
2018-06-06T04:57:07.674Z,1007.58
2018-06-06T04:58:07.655Z,1007.57
2018-06-06T04:59:07.641Z,1007.55
2018-06-06T05:00:07.671Z,1007.60
2018-06-06T05:01:07.612Z,1007.58
2018-06-06T05:02:07.604Z,1007.63
2018-06-06T05:03:07.589Z,1007.62
2018-06-06T05:04:07.583Z,1007.65
2018-06-06T05:05:07.560Z,1007.63
2018-06-06T05:06:07.551Z,1007.63
2018-06-06T05:07:07.543Z,1007.65
2018-06-06T05:08:07.572Z,1007.64
2018-06-06T05:09:07.515Z,1007.61
2018-06-06T05:10:07.502Z,1007.63
2018-06-06T05:11:07.493Z,1007.59
2018-06-06T05:12:07.473Z,1007.64
2018-06-06T05:13:07.457Z,1007.64
2018-06-06T05:14:07.447Z,1007.68
2018-06-06T05:15:07.435Z,1007.73
2018-06-06T05:16:07.418Z,1007.72
2018-06-06T05:17:07.412Z,1007.71
2018-06-06T05:18:07.402Z,1007.73
2018-06-06T05:19:07.441Z,1007.72
2018-06-06T05:20:07.369Z,1007.72
2018-06-06T05:21:07.458Z,1007.71
2018-06-06T05:22:07.341Z,1007.71
2018-06-06T05:23:07.479Z,1007.70
2018-06-06T05:24:07.321Z,1007.74
2018-06-06T05:25:07.309Z,1007.74
2018-06-06T05:26:07.289Z,1007.73
2018-06-06T05:27:07.311Z,1007.73
2018-06-06T05:28:07.271Z,1007.72
2018-06-06T05:29:07.359Z,1007.72
2018-06-06T05:30:07.255Z,1007.68
2018-06-06T05:31:07.268Z,1007.69
2018-06-06T05:32:07.219Z,1007.70
2018-06-06T05:33:07.207Z,1007.71
2018-06-06T05:34:07.193Z,1007.68
2018-06-06T05:35:07.191Z,1007.72
2018-06-06T05:36:07.166Z,1007.73
2018-06-06T05:37:07.153Z,1007.77
2018-06-06T05:38:07.139Z,1007.76
2018-06-06T05:39:07.182Z,1007.76
2018-06-06T05:40:07.120Z,1007.75
2018-06-06T05:41:07.105Z,1007.79
2018-06-06T05:42:07.092Z,1007.72
2018-06-06T05:43:07.083Z,1007.74
2018-06-06T05:44:07.060Z,1007.75
2018-06-06T05:45:07.057Z,1007.75
2018-06-06T05:46:07.045Z,1007.77
2018-06-06T05:47:07.046Z,1007.76
2018-06-06T05:48:07.023Z,1007.75
2018-06-06T05:49:07.009Z,1007.74
2018-06-06T05:50:06.996Z,1007.77
2018-06-06T05:51:06.983Z,1007.77
2018-06-06T05:52:06.970Z,1007.80
2018-06-06T05:53:06.957Z,1007.80
2018-06-06T05:54:06.948Z,1007.80
2018-06-06T05:55:06.925Z,1007.77
2018-06-06T05:56:06.922Z,1007.81
2018-06-06T05:57:06.906Z,1007.77
2018-06-06T05:58:06.900Z,1007.80
2018-06-06T05:59:06.890Z,1007.77
2018-06-06T06:00:06.868Z,1007.80
2018-06-06T06:01:06.861Z,1007.78
2018-06-06T06:02:06.839Z,1007.80
2018-06-06T06:03:06.838Z,1007.77
2018-06-06T06:04:06.825Z,1007.79
2018-06-06T06:05:06.812Z,1007.76
2018-06-06T06:06:06.841Z,1007.79
2018-06-06T06:07:06.792Z,1007.76
2018-06-06T06:08:06.781Z,1007.74
2018-06-06T06:09:06.765Z,1007.83
2018-06-06T06:10:06.748Z,1007.75
2018-06-06T06:11:06.741Z,1007.74
2018-06-06T06:12:06.732Z,1007.72
2018-06-06T06:13:06.719Z,1007.77
2018-06-06T06:14:06.703Z,1007.77
2018-06-06T06:15:06.691Z,1007.73
2018-06-06T06:16:06.681Z,1007.78
2018-06-06T06:17:06.672Z,1007.81
2018-06-06T06:18:06.656Z,1007.76
2018-06-06T06:19:06.642Z,1007.80
2018-06-06T06:20:06.631Z,1007.83
2018-06-06T06:21:06.623Z,1007.85
2018-06-06T06:22:06.607Z,1007.85
2018-06-06T06:23:06.597Z,1007.87
2018-06-06T06:24:06.633Z,1007.85
2018-06-06T06:25:06.578Z,1007.84
2018-06-06T06:26:06.562Z,1007.83
2018-06-06T06:27:06.549Z,1007.83
2018-06-06T06:28:06.545Z,1007.83
2018-06-06T06:29:06.530Z,1007.81
2018-06-06T06:30:06.524Z,1007.83
2018-06-06T06:31:06.505Z,1007.80
2018-06-06T06:32:06.491Z,1007.79
2018-06-06T06:33:06.483Z,1007.81
2018-06-06T06:34:06.469Z,1007.82
2018-06-06T06:35:06.456Z,1007.77
2018-06-06T06:36:06.469Z,1007.73
2018-06-06T06:37:06.431Z,1007.78
2018-06-06T06:38:06.427Z,1007.77
2018-06-06T06:39:06.412Z,1007.73
2018-06-06T06:40:06.403Z,1007.75
2018-06-06T06:41:06.541Z,1007.81
2018-06-06T06:42:06.383Z,1007.79
2018-06-06T06:43:06.370Z,1007.75
2018-06-06T06:44:06.360Z,1007.76
2018-06-06T06:45:06.354Z,1007.75
2018-06-06T06:46:06.341Z,1007.79
2018-06-06T06:47:06.361Z,1007.78
2018-06-06T06:48:06.308Z,1007.76
2018-06-06T06:49:06.302Z,1007.81
2018-06-06T06:50:06.287Z,1007.78
2018-06-06T06:51:06.274Z,1007.82
2018-06-06T06:52:06.269Z,1007.85
2018-06-06T06:53:06.262Z,1007.84
2018-06-06T06:54:06.249Z,1007.83
2018-06-06T06:55:06.238Z,1007.81
2018-06-06T06:56:06.226Z,1007.85
2018-06-06T06:57:06.214Z,1007.83
2018-06-06T06:58:06.255Z,1007.84
2018-06-06T06:59:06.186Z,1007.79
2018-06-06T07:00:06.176Z,1007.81
2018-06-06T07:01:06.169Z,1007.85
2018-06-06T07:02:06.161Z,1007.84
2018-06-06T07:03:06.154Z,1007.83
2018-06-06T07:04:06.146Z,1007.82
2018-06-06T07:05:06.132Z,1007.87
2018-06-06T07:06:06.116Z,1007.84
2018-06-06T07:07:06.104Z,1007.89
2018-06-06T07:08:06.098Z,1007.86
2018-06-06T07:09:06.088Z,1007.89
2018-06-06T07:10:06.076Z,1007.89
2018-06-06T07:11:06.065Z,1007.87
2018-06-06T07:12:06.124Z,1007.90
2018-06-06T07:13:06.042Z,1007.89
2018-06-06T07:14:06.036Z,1007.91
2018-06-06T07:15:06.022Z,1007.92
2018-06-06T07:16:06.010Z,1007.89
2018-06-06T07:17:06.004Z,1007.85
2018-06-06T07:18:05.988Z,1007.90
2018-06-06T07:19:05.979Z,1007.95
2018-06-06T07:20:05.968Z,1007.95
2018-06-06T07:21:05.969Z,1007.93
2018-06-06T07:22:05.952Z,1007.93
2018-06-06T07:23:05.999Z,1007.94
2018-06-06T07:24:05.930Z,1007.94
2018-06-06T07:25:05.917Z,1007.96
2018-06-06T07:26:05.908Z,1007.93
2018-06-06T07:27:05.901Z,1007.90
2018-06-06T07:28:05.887Z,1007.92
2018-06-06T07:29:05.881Z,1007.88
2018-06-06T07:30:05.866Z,1007.88
2018-06-06T07:31:06.009Z,1007.88
2018-06-06T07:32:05.849Z,1007.93
2018-06-06T07:33:05.933Z,1007.93
2018-06-06T07:34:05.830Z,1007.95
2018-06-06T07:35:05.821Z,1007.96
2018-06-06T07:36:05.812Z,1007.97
2018-06-06T07:37:05.850Z,1007.99
2018-06-06T07:38:05.793Z,1007.93
2018-06-06T07:39:05.827Z,1008.02
2018-06-06T07:40:05.770Z,1008.00
2018-06-06T07:41:05.759Z,1008.01
2018-06-06T07:42:05.744Z,1008.05
2018-06-06T07:43:05.739Z,1008.02
2018-06-06T07:44:05.732Z,1008.08
2018-06-06T07:45:05.751Z,1008.04
2018-06-06T07:46:05.710Z,1008.03
2018-06-06T07:47:05.761Z,1008.04
2018-06-06T07:48:05.694Z,1007.98
2018-06-06T07:49:05.681Z,1007.98
2018-06-06T07:50:05.677Z,1008.03
2018-06-06T07:51:05.671Z,1007.97
2018-06-06T07:52:05.652Z,1008.02
2018-06-06T07:53:05.649Z,1008.07
2018-06-06T07:54:05.633Z,1008.08
2018-06-06T07:55:05.626Z,1008.05
2018-06-06T07:56:05.623Z,1008.01
2018-06-06T07:57:05.610Z,1008.04
2018-06-06T07:58:05.605Z,1008.00
2018-06-06T07:59:05.590Z,1008.01
2018-06-06T08:00:05.592Z,1008.06
2018-06-06T08:01:05.580Z,1008.03
2018-06-06T08:02:05.576Z,1008.02
2018-06-06T08:03:05.563Z,1008.04
2018-06-06T08:04:05.554Z,1008.06
2018-06-06T08:05:05.545Z,1008.06
2018-06-06T08:06:05.530Z,1008.06
2018-06-06T08:07:05.543Z,1008.00
2018-06-06T08:08:05.528Z,1007.96
2018-06-06T08:09:05.509Z,1008.07
2018-06-06T08:10:05.498Z,1008.02
2018-06-06T08:11:05.490Z,1008.02
2018-06-06T08:12:05.483Z,1008.01
2018-06-06T08:13:05.476Z,1007.98
2018-06-06T08:14:05.569Z,1007.98
2018-06-06T08:15:05.457Z,1008.00
2018-06-06T08:16:05.489Z,1008.01
2018-06-06T08:17:05.430Z,1008.00
2018-06-06T08:18:05.423Z,1007.99
2018-06-06T08:19:05.433Z,1008.06
2018-06-06T08:20:05.406Z,1008.05
2018-06-06T08:21:05.407Z,1008.04
2018-06-06T08:22:05.387Z,1008.04
2018-06-06T08:23:05.380Z,1007.99
2018-06-06T08:24:05.372Z,1008.05
2018-06-06T08:25:05.369Z,1008.07
2018-06-06T08:26:05.355Z,1008.03
2018-06-06T08:27:05.347Z,1008.09
2018-06-06T08:28:05.342Z,1008.09
2018-06-06T08:29:05.334Z,1008.06
2018-06-06T08:30:05.320Z,1008.06
2018-06-06T08:31:05.307Z,1008.10
2018-06-06T08:32:05.306Z,1008.10
2018-06-06T08:33:05.297Z,1008.09
2018-06-06T08:34:05.291Z,1008.07
2018-06-06T08:35:05.278Z,1008.08
2018-06-06T08:36:05.275Z,1008.09
2018-06-06T08:37:05.264Z,1008.13
2018-06-06T08:38:05.262Z,1008.10
2018-06-06T08:39:05.253Z,1008.10
2018-06-06T08:40:05.238Z,1008.11
2018-06-06T08:41:05.227Z,1008.13
2018-06-06T08:42:05.224Z,1008.07
2018-06-06T08:43:05.214Z,1008.12
2018-06-06T08:44:05.214Z,1008.03
2018-06-06T08:45:05.203Z,1008.03
2018-06-06T08:46:05.203Z,1008.02
2018-06-06T08:47:05.178Z,1008.04
2018-06-06T08:48:05.180Z,1008.05
2018-06-06T08:49:05.167Z,1008.01
2018-06-06T08:50:05.166Z,1008.06
2018-06-06T08:51:05.160Z,1008.07
2018-06-06T08:52:05.152Z,1008.09
2018-06-06T08:53:05.141Z,1008.09
2018-06-06T08:54:05.136Z,1008.05
2018-06-06T08:55:05.127Z,1008.00
2018-06-06T08:56:05.123Z,1008.05
2018-06-06T08:57:05.110Z,1008.10
2018-06-06T08:58:05.113Z,1008.04
2018-06-06T08:59:05.097Z,1008.04
2018-06-06T09:00:05.100Z,1008.07
2018-06-06T09:01:05.093Z,1008.13
2018-06-06T09:02:05.090Z,1008.19
2018-06-06T09:03:05.085Z,1008.23
2018-06-06T09:04:05.108Z,1008.31
2018-06-06T09:05:05.079Z,1008.39
2018-06-06T09:06:05.072Z,1008.41
2018-06-06T09:07:05.068Z,1008.53
2018-06-06T09:08:05.065Z,1008.55
2018-06-06T09:09:05.062Z,1008.61
2018-06-06T09:10:05.059Z,1008.55
2018-06-06T09:11:05.062Z,1008.61
2018-06-06T09:12:05.052Z,1008.65
2018-06-06T09:13:05.045Z,1008.59
2018-06-06T09:14:05.043Z,1008.56
2018-06-06T09:15:05.043Z,1008.55
2018-06-06T09:16:05.043Z,1008.57
2018-06-06T09:17:05.036Z,1008.55
2018-06-06T09:18:05.043Z,1008.62
2018-06-06T09:19:05.026Z,1008.51
2018-06-06T09:20:05.041Z,1008.50
2018-06-06T09:21:05.033Z,1008.50
2018-06-06T09:22:05.030Z,1008.53
2018-06-06T09:23:05.027Z,1008.59
2018-06-06T09:24:05.023Z,1008.60
2018-06-06T09:25:05.021Z,1008.58
2018-06-06T09:26:05.020Z,1008.54
2018-06-06T09:27:05.020Z,1008.52
2018-06-06T09:28:05.011Z,1008.43
2018-06-06T09:29:05.012Z,1008.44
2018-06-06T09:30:05.009Z,1008.43
2018-06-06T09:31:05.006Z,1008.40
2018-06-06T09:32:05.010Z,1008.36
2018-06-06T09:33:05.006Z,1008.42
2018-06-06T09:34:05.000Z,1008.30
2018-06-06T09:35:05.037Z,1008.23
2018-06-06T09:36:05.003Z,1008.26
2018-06-06T09:37:05.002Z,1008.23
2018-06-06T09:38:04.997Z,1008.24
2018-06-06T09:39:05.003Z,1008.17
2018-06-06T09:40:04.990Z,1008.15
2018-06-06T09:41:05.004Z,1008.25
2018-06-06T09:42:04.992Z,1008.24
2018-06-06T09:43:04.987Z,1008.19
2018-06-06T09:44:04.992Z,1008.20
2018-06-06T09:45:04.981Z,1008.19
2018-06-06T09:46:04.978Z,1008.11
2018-06-06T09:47:04.980Z,1008.18
2018-06-06T09:48:04.994Z,1008.16
2018-06-06T09:49:04.975Z,1008.12
2018-06-06T09:50:04.978Z,1008.10
2018-06-06T09:51:04.971Z,1008.08
2018-06-06T09:52:04.973Z,1008.09
2018-06-06T09:53:04.968Z,1008.05
2018-06-06T09:54:04.977Z,1008.00
2018-06-06T09:55:04.967Z,1007.97
2018-06-06T09:56:04.962Z,1008.00
2018-06-06T09:57:04.997Z,1008.03
2018-06-06T09:58:04.967Z,1008.00
2018-06-06T09:59:04.955Z,1007.99
2018-06-06T10:00:04.955Z,1007.97
2018-06-06T10:01:04.954Z,1008.01
2018-06-06T10:02:04.971Z,1008.01
2018-06-06T10:03:04.951Z,1007.99
2018-06-06T10:04:04.951Z,1008.04
2018-06-06T10:05:04.943Z,1008.01
2018-06-06T10:06:04.942Z,1007.99
2018-06-06T10:07:04.939Z,1008.02
2018-06-06T10:08:04.983Z,1008.07
2018-06-06T10:09:04.932Z,1008.10
2018-06-06T10:10:04.933Z,1008.11
2018-06-06T10:11:04.932Z,1008.11
2018-06-06T10:12:04.927Z,1008.09
2018-06-06T10:13:04.923Z,1008.12
2018-06-06T10:14:04.919Z,1008.08
2018-06-06T10:15:04.917Z,1008.10
2018-06-06T10:16:04.923Z,1008.07
2018-06-06T10:17:04.918Z,1008.07
2018-06-06T10:18:04.906Z,1008.07
2018-06-06T10:19:04.904Z,1008.08
2018-06-06T10:20:04.904Z,1008.07
2018-06-06T10:21:04.901Z,1008.09
2018-06-06T10:22:04.902Z,1008.05
2018-06-06T10:23:04.895Z,1008.03
2018-06-06T10:24:04.897Z,1008.10
2018-06-06T10:25:04.890Z,1008.08
2018-06-06T10:26:04.886Z,1008.07
2018-06-06T10:27:04.881Z,1008.12
2018-06-06T10:28:04.886Z,1008.10
2018-06-06T10:29:04.881Z,1008.02
2018-06-06T10:30:04.971Z,1008.06
2018-06-06T10:31:04.872Z,1008.10
2018-06-06T10:32:04.927Z,1008.02
2018-06-06T10:33:04.859Z,1008.05
2018-06-06T10:34:04.920Z,1008.03
2018-06-06T10:35:04.857Z,1008.00
2018-06-06T10:36:04.901Z,1008.00
2018-06-06T10:37:04.852Z,1008.03
2018-06-06T10:38:04.852Z,1008.03
2018-06-06T10:39:04.841Z,1008.02
2018-06-06T10:40:04.885Z,1008.08
2018-06-06T10:41:04.836Z,1008.05
2018-06-06T10:42:04.827Z,1008.06
2018-06-06T10:43:04.831Z,1008.05
2018-06-06T10:44:04.820Z,1008.00
2018-06-06T10:45:04.816Z,1008.00
2018-06-06T10:46:04.814Z,1007.98
2018-06-06T10:47:04.807Z,1008.02
2018-06-06T10:48:04.804Z,1008.00
2018-06-06T10:49:04.799Z,1008.02
2018-06-06T10:50:04.810Z,1008.00
2018-06-06T10:51:04.787Z,1008.01
2018-06-06T10:52:04.786Z,1008.01
2018-06-06T10:53:04.786Z,1008.09
2018-06-06T10:54:04.785Z,1008.00
2018-06-06T10:55:04.806Z,1007.99
2018-06-06T10:56:04.767Z,1008.06
2018-06-06T10:57:04.767Z,1007.98
2018-06-06T10:58:04.761Z,1007.97
2018-06-06T10:59:04.761Z,1007.96
2018-06-06T11:00:04.751Z,1007.99
2018-06-06T11:01:04.752Z,1007.95
2018-06-06T11:02:04.741Z,1007.97
2018-06-06T11:03:04.888Z,1007.97
2018-06-06T11:04:04.739Z,1007.96
2018-06-06T11:05:04.831Z,1007.94
2018-06-06T11:06:04.733Z,1007.98
2018-06-06T11:07:04.724Z,1008.03
2018-06-06T11:08:04.716Z,1008.05
2018-06-06T11:09:04.718Z,1008.10
2018-06-06T11:10:04.706Z,1008.10
2018-06-06T11:11:04.704Z,1007.99
2018-06-06T11:12:04.697Z,1007.97
2018-06-06T11:13:04.692Z,1008.00
2018-06-06T11:14:04.694Z,1007.91
2018-06-06T11:15:04.682Z,1007.95
2018-06-06T11:16:04.682Z,1007.95
2018-06-06T11:17:04.681Z,1007.80
2018-06-06T11:18:04.675Z,1007.96
2018-06-06T11:19:04.665Z,1007.94
2018-06-06T11:20:04.669Z,1007.94
2018-06-06T11:21:04.665Z,1007.95
2018-06-06T11:22:04.653Z,1007.96
2018-06-06T11:23:04.653Z,1007.95
2018-06-06T11:24:04.659Z,1007.98
2018-06-06T11:25:04.643Z,1007.96
2018-06-06T11:26:04.642Z,1007.97
2018-06-06T11:27:04.633Z,1007.94
2018-06-06T11:28:04.635Z,1007.93
2018-06-06T11:29:04.633Z,1007.94
2018-06-06T11:30:04.669Z,1007.90
2018-06-06T11:31:04.621Z,1007.89
2018-06-06T11:32:04.646Z,1007.85
2018-06-06T11:33:04.621Z,1007.83
2018-06-06T11:34:04.610Z,1007.87
2018-06-06T11:35:04.616Z,1007.87
2018-06-06T11:36:04.597Z,1007.86
2018-06-06T11:37:04.597Z,1007.82
2018-06-06T11:38:04.597Z,1007.79
2018-06-06T11:39:04.588Z,1007.84
2018-06-06T11:40:04.584Z,1007.84
2018-06-06T11:41:04.585Z,1007.80
2018-06-06T11:42:04.582Z,1007.81
2018-06-06T11:43:04.573Z,1007.77
2018-06-06T11:44:04.577Z,1007.79
2018-06-06T11:45:04.564Z,1007.77
2018-06-06T11:46:04.563Z,1007.74
2018-06-06T11:47:04.563Z,1007.74
2018-06-06T11:48:04.553Z,1007.66
2018-06-06T11:49:04.552Z,1007.60
2018-06-06T11:50:04.547Z,1007.72
2018-06-06T11:51:04.550Z,1007.72
2018-06-06T11:52:04.547Z,1007.67
2018-06-06T11:53:04.528Z,1007.66
2018-06-06T11:54:04.529Z,1007.66
2018-06-06T11:55:04.531Z,1007.58
2018-06-06T11:56:04.536Z,1007.65
2018-06-06T11:57:04.518Z,1007.64
2018-06-06T11:58:04.517Z,1007.68
2018-06-06T11:59:04.512Z,1007.67
2018-06-06T12:00:04.506Z,1007.58
2018-06-06T12:01:04.521Z,1007.62
2018-06-06T12:02:04.503Z,1007.64
2018-06-06T12:03:04.500Z,1007.62
2018-06-06T12:04:04.493Z,1007.61
2018-06-06T12:05:04.488Z,1007.60